createdAt,value
2018-04-28T00:01:40.292Z,101690.33
2018-04-28T00:04:12.056Z,101691.89
2018-04-28T00:06:44.266Z,101693.19
2018-04-28T00:09:16.485Z,101693.55
2018-04-28T00:11:48.112Z,101684.52
2018-04-28T00:14:21.055Z,101690.06
2018-04-28T00:16:53.546Z,101687.00
2018-04-28T00:19:28.462Z,101688.07
2018-04-28T00:22:01.022Z,101694.75
2018-04-28T00:24:36.497Z,101689.34
2018-04-28T00:30:53.312Z,101695.27
2018-04-28T00:33:34.825Z,101689.56
2018-04-28T00:37:07.582Z,101687.80
2018-04-28T00:39:46.466Z,101698.39
2018-04-28T00:42:18.723Z,101689.53
2018-04-28T00:44:52.126Z,101685.22
2018-04-28T00:47:25.570Z,101691.70
2018-04-28T00:53:12.497Z,101685.02
2018-04-28T00:55:42.884Z,101693.91
2018-04-28T00:58:18.514Z,101695.24
2018-04-28T01:00:55.566Z,101694.55
2018-04-28T01:03:31.364Z,101696.92
2018-04-28T01:06:02.563Z,101694.66
2018-04-28T01:08:34.441Z,101698.69
2018-04-28T01:11:06.505Z,101696.31
2018-04-28T01:13:47.463Z,101693.73
2018-04-28T01:16:18.969Z,101698.72
2018-04-28T01:18:57.485Z,101695.09
2018-04-28T01:21:47.827Z,101699.74
2018-04-28T01:24:36.516Z,101698.05
2018-04-28T01:27:15.932Z,101701.67
2018-04-28T01:33:07.793Z,101709.95
2018-04-28T01:39:04.199Z,101702.70
2018-04-28T01:41:43.707Z,101706.88
2018-04-28T01:45:55.604Z,101704.42
2018-04-28T01:48:31.355Z,101706.23
2018-04-28T01:51:08.570Z,101704.76
2018-04-28T01:59:04.122Z,101700.98
2018-04-28T02:01:41.584Z,101703.48
2018-04-28T02:04:24.669Z,101703.21
2018-04-28T02:07:06.978Z,101698.73
2018-04-28T02:09:44.327Z,101701.95
2018-04-28T02:12:25.588Z,101701.37
2018-04-28T02:15:15.316Z,101697.85
2018-04-28T02:17:53.952Z,101700.34
2018-04-28T02:20:28.460Z,101709.03
2018-04-28T02:23:11.522Z,101707.48
2018-04-28T02:26:02.309Z,101701.94
2018-04-28T02:28:49.596Z,101704.42
2018-04-28T02:34:34.379Z,101704.19
2018-04-28T02:37:13.145Z,101702.23
2018-04-28T02:39:46.600Z,101705.52
2018-04-28T02:42:37.787Z,101714.16
2018-04-28T02:45:13.268Z,101713.81
2018-04-28T02:47:46.629Z,101708.11
2018-04-28T02:50:26.352Z,101706.50
2018-04-28T02:53:04.014Z,101707.83
2018-04-28T02:55:46.395Z,101711.44
2018-04-28T02:58:21.150Z,101705.05
2018-04-28T03:04:02.475Z,101717.59
2018-04-28T03:06:57.612Z,101717.72
2018-04-28T03:09:33.019Z,101715.80
2018-04-28T03:12:08.714Z,101724.22
2018-04-28T03:15:02.600Z,101713.06
2018-04-28T03:17:42.234Z,101720.26
2018-04-28T03:20:24.278Z,101719.84
2018-04-28T03:23:01.630Z,101724.87
2018-04-28T03:28:44.524Z,101723.59
2018-04-28T03:31:30.556Z,101727.63
2018-04-28T03:38:44.371Z,101727.41
2018-04-28T03:43:07.091Z,101729.50
2018-04-28T03:45:40.469Z,101730.88
2018-04-28T03:48:19.625Z,101735.92
2018-04-28T03:50:56.306Z,101738.64
2018-04-28T03:53:29.509Z,101743.82
2018-04-28T03:56:05.071Z,101748.15
2018-04-28T04:01:49.000Z,101755.78
2018-04-28T04:04:27.038Z,101756.64
2018-04-28T04:07:18.749Z,101762.63
2018-04-28T04:12:20.802Z,101761.23
2018-04-28T04:15:16.050Z,101762.56
2018-04-28T04:17:59.120Z,101771.02
2018-04-28T04:20:35.047Z,101776.91
2018-04-28T04:23:20.542Z,101776.25
2018-04-28T04:26:01.605Z,101776.86
2018-04-28T04:31:57.501Z,101780.95
2018-04-28T04:37:57.631Z,101786.05
2018-04-28T04:40:58.546Z,101789.78
2018-04-28T04:46:49.726Z,101788.41
2018-04-28T04:53:00.681Z,101796.78
2018-04-28T04:58:46.778Z,101795.50
2018-04-28T05:01:46.042Z,101788.33
2018-04-28T05:07:43.961Z,101789.79
2018-04-28T05:10:41.671Z,101790.03
2018-04-28T05:16:44.327Z,101799.70
2018-04-28T05:19:33.503Z,101792.30
2018-04-28T05:28:42.711Z,101794.61
2018-04-28T05:34:33.532Z,101790.47
2018-04-28T05:37:17.902Z,101788.79
2018-04-28T05:43:24.519Z,101783.66
2018-04-28T05:46:08.628Z,101787.64
2018-04-28T05:48:52.433Z,101785.41
2018-04-28T05:51:36.849Z,101783.02
2018-04-28T05:57:55.840Z,101775.95
2018-04-28T06:03:52.593Z,101779.12
2018-04-28T06:06:32.077Z,101781.78
2018-04-28T06:09:25.423Z,101772.56
2018-04-28T06:18:33.886Z,101766.55
2018-04-28T06:21:06.904Z,101761.89
2018-04-28T06:23:40.363Z,101761.18
2018-04-28T06:26:13.974Z,101761.66
2018-04-28T06:28:47.207Z,101759.13
2018-04-28T06:31:20.636Z,101761.30
2018-04-28T06:33:54.172Z,101761.19
2018-04-28T06:36:27.180Z,101763.11
2018-04-28T06:39:00.387Z,101760.45
2018-04-28T06:41:33.521Z,101763.58
2018-04-28T06:44:06.750Z,101762.45
2018-04-28T06:46:40.503Z,101762.44
2018-04-28T06:49:13.653Z,101764.73
2018-04-28T06:51:46.591Z,101767.19
2018-04-28T06:54:19.941Z,101768.75
2018-04-28T06:56:52.616Z,101764.68
2018-04-28T06:59:25.440Z,101770.23
2018-04-28T07:01:58.237Z,101764.80
2018-04-28T07:04:31.319Z,101766.04
2018-04-28T07:07:04.397Z,101761.67
2018-04-28T07:09:37.464Z,101754.70
2018-04-28T07:12:10.579Z,101762.45
2018-04-28T07:14:43.673Z,101759.00
2018-04-28T07:17:16.317Z,101763.62
2018-04-28T07:19:49.460Z,101762.66
2018-04-28T07:23:38.239Z,101763.32
2018-04-28T07:26:10.931Z,101760.07
2018-04-28T07:28:43.977Z,101757.87
2018-04-28T07:31:17.378Z,101757.41
2018-04-28T07:33:50.536Z,101756.44
2018-04-28T07:36:23.530Z,101761.62
2018-04-28T07:38:56.547Z,101762.34
2018-04-28T07:41:29.422Z,101759.70
2018-04-28T07:44:01.848Z,101757.73
2018-04-28T07:46:34.923Z,101765.56
2018-04-28T07:49:07.986Z,101765.19
2018-04-28T07:51:40.927Z,101765.06
2018-04-28T07:54:13.666Z,101764.23
2018-04-28T07:56:46.529Z,101767.71
2018-04-28T07:59:20.519Z,101766.77
2018-04-28T08:01:53.559Z,101770.06
2018-04-28T08:04:27.417Z,101768.30
2018-04-28T08:07:00.372Z,101770.44
2018-04-28T08:09:33.721Z,101772.79
2018-04-28T08:12:07.161Z,101769.55
2018-04-28T08:14:40.419Z,101766.00
2018-04-28T08:19:19.117Z,101762.32
2018-04-28T08:21:52.537Z,101766.81
2018-04-28T08:24:25.476Z,101767.23
2018-04-28T08:26:58.534Z,101771.69
2018-04-28T08:29:31.459Z,101770.66
2018-04-28T08:32:04.508Z,101767.49
2018-04-28T08:34:37.110Z,101770.06
2018-04-28T08:37:10.532Z,101768.55
2018-04-28T08:39:43.707Z,101770.39
2018-04-28T08:42:16.604Z,101764.33
2018-04-28T08:44:49.554Z,101760.23
2018-04-28T08:47:22.748Z,101756.64
2018-04-28T08:49:55.166Z,101755.48
2018-04-28T08:52:27.877Z,101753.18
2018-04-28T08:55:01.448Z,101755.78
2018-04-28T08:57:34.413Z,101747.66
2018-04-28T09:00:17.750Z,101744.63
2018-04-28T09:02:50.345Z,101748.86
2018-04-28T09:05:23.253Z,101746.77
2018-04-28T09:07:56.321Z,101747.58
2018-04-28T09:10:29.713Z,101743.09
2018-04-28T09:13:02.706Z,101740.92
2018-04-28T09:15:36.413Z,101739.94
2018-04-28T09:18:09.068Z,101737.58
2018-04-28T09:20:41.833Z,101738.73
2018-04-28T09:23:16.698Z,101734.76
2018-04-28T09:25:49.880Z,101730.39
2018-04-28T09:28:23.417Z,101736.84
2018-04-28T09:30:56.330Z,101731.72
2018-04-28T09:33:29.402Z,101735.16
2018-04-28T09:36:02.554Z,101735.57
2018-04-28T09:38:35.509Z,101740.04
2018-04-28T09:41:07.099Z,101734.95
2018-04-28T09:43:40.444Z,101731.70
2018-04-28T09:46:13.454Z,101727.89
2018-04-28T09:48:45.922Z,101728.69
2018-04-28T09:51:18.935Z,101733.25
2018-04-28T09:53:51.537Z,101722.97
2018-04-28T09:56:24.815Z,101731.27
2018-04-28T09:58:58.692Z,101723.91
2018-04-28T10:01:46.294Z,101722.77
2018-04-28T10:04:24.401Z,101722.06
2018-04-28T10:06:57.225Z,101721.81
2018-04-28T10:09:29.977Z,101725.25
2018-04-28T10:12:03.182Z,101722.69
2018-04-28T10:14:36.515Z,101724.26
2018-04-28T10:17:09.392Z,101724.89
2018-04-28T10:19:43.578Z,101725.97
2018-04-28T10:22:17.886Z,101728.59
2018-04-28T10:24:51.536Z,101726.38
2018-04-28T10:27:24.517Z,101721.63
2018-04-28T10:29:57.721Z,101718.72
2018-04-28T10:32:30.906Z,101721.72
2018-04-28T10:35:03.899Z,101719.83
2018-04-28T10:37:36.948Z,101715.17
2018-04-28T10:40:10.370Z,101710.47
2018-04-28T10:42:43.231Z,101719.99
2018-04-28T10:45:16.389Z,101713.94
2018-04-28T10:47:50.057Z,101714.02
2018-04-28T10:50:23.061Z,101719.89
2018-04-28T10:52:55.652Z,101716.13
2018-04-28T10:57:27.244Z,101713.25
2018-04-28T10:59:59.413Z,101699.58
2018-04-28T11:02:32.401Z,101701.75
2018-04-28T11:05:05.381Z,101699.47
2018-04-28T11:07:38.248Z,101705.64
2018-04-28T11:10:11.211Z,101710.57
2018-04-28T11:12:44.100Z,101709.37
2018-04-28T11:15:16.915Z,101709.45
2018-04-28T11:17:49.941Z,101707.77
2018-04-28T11:20:23.192Z,101698.80
2018-04-28T11:22:55.668Z,101704.28
2018-04-28T11:25:28.426Z,101707.39
2018-04-28T11:28:00.917Z,101695.39
2018-04-28T11:30:34.055Z,101697.13
2018-04-28T11:33:07.579Z,101694.95
2018-04-28T11:35:40.393Z,101696.53
2018-04-28T11:38:13.421Z,101696.36
2018-04-28T11:40:46.385Z,101694.19
2018-04-28T11:43:19.406Z,101697.84
2018-04-28T11:45:52.524Z,101688.22
2018-04-28T11:48:25.430Z,101699.23
2018-04-28T11:50:58.379Z,101699.30
2018-04-28T11:53:31.357Z,101700.25
2018-04-28T11:56:04.450Z,101695.66
2018-04-28T11:58:36.924Z,101692.36
2018-04-28T12:01:10.641Z,101687.59
2018-04-28T12:03:44.291Z,101688.06
2018-04-28T12:06:17.506Z,101687.06
2018-04-28T12:08:50.661Z,101685.89
2018-04-28T12:11:24.308Z,101681.34
2018-04-28T12:13:57.293Z,101681.45
2018-04-28T12:16:30.983Z,101673.41
2018-04-28T12:19:04.095Z,101667.54
2018-04-28T12:21:37.319Z,101660.92
2018-04-28T12:24:11.069Z,101665.60
2018-04-28T12:26:43.457Z,101661.86
2018-04-28T12:29:16.029Z,101661.05
2018-04-28T12:31:49.389Z,101654.32
2018-04-28T12:34:22.579Z,101655.89
2018-04-28T12:36:55.633Z,101653.59
2018-04-28T12:39:28.749Z,101658.97
2018-04-28T12:42:01.397Z,101658.11
2018-04-28T12:44:34.397Z,101643.73
2018-04-28T12:47:07.429Z,101637.95
2018-04-28T12:49:39.928Z,101639.66
2018-04-28T12:52:13.091Z,101640.16
2018-04-28T12:54:46.074Z,101641.91
2018-04-28T12:57:19.097Z,101648.28
2018-04-28T12:59:52.296Z,101646.56
2018-04-28T13:02:24.624Z,101646.56
2018-04-28T13:04:58.798Z,101652.94
2018-04-28T13:07:31.431Z,101657.95
2018-04-28T13:10:04.022Z,101667.05
2018-04-28T13:12:37.455Z,101674.68
2018-04-28T13:15:10.053Z,101681.84
2018-04-28T13:17:43.746Z,101684.59
2018-04-28T13:20:16.781Z,101684.48
2018-04-28T13:23:28.516Z,101687.05
2018-04-28T13:26:01.102Z,101689.11
2018-04-28T13:28:34.457Z,101694.95
2018-04-28T13:31:07.806Z,101697.34
2018-04-28T13:33:40.558Z,101695.23
2018-04-28T13:36:13.659Z,101691.00
2018-04-28T13:38:46.599Z,101694.84
2018-04-28T13:41:19.606Z,101702.08
2018-04-28T13:43:52.544Z,101698.77
2018-04-28T13:46:25.414Z,101697.70
2018-04-28T13:48:57.930Z,101701.33
2018-04-28T13:51:31.409Z,101701.19
2018-04-28T13:54:04.514Z,101700.80
2018-04-28T13:56:38.545Z,101697.05
2018-04-28T13:59:11.658Z,101697.05
2018-04-28T14:01:44.071Z,101689.15
2018-04-28T14:04:17.503Z,101679.25
2018-04-28T14:06:51.511Z,101686.30
2018-04-28T14:09:25.399Z,101697.27
2018-04-28T14:11:58.513Z,101691.71
2018-04-28T14:14:31.544Z,101696.23
2018-04-28T14:17:04.242Z,101696.23
2018-04-28T14:19:37.393Z,101698.88
2018-04-28T14:22:10.503Z,101699.84
2018-04-28T14:24:43.641Z,101703.42
2018-04-28T14:27:16.838Z,101709.30
2018-04-28T14:29:49.419Z,101703.00
2018-04-28T14:32:22.408Z,101701.64
2018-04-28T14:34:55.031Z,101704.23
2018-04-28T14:37:28.584Z,101703.81
2018-04-28T14:40:01.442Z,101704.06
2018-04-28T14:42:41.917Z,101708.30
2018-04-28T14:45:15.517Z,101709.55
2018-04-28T14:47:48.381Z,101703.77
2018-04-28T14:50:21.204Z,101706.27
2018-04-28T14:52:54.009Z,101704.84
2018-04-28T14:55:27.543Z,101712.56
2018-04-28T14:58:00.305Z,101712.50
2018-04-28T15:00:33.398Z,101714.63
2018-04-28T15:03:06.430Z,101720.83
2018-04-28T15:05:39.828Z,101724.59
2018-04-28T15:08:13.026Z,101719.99
2018-04-28T15:10:46.212Z,101721.31
2018-04-28T15:13:19.460Z,101727.61
2018-04-28T15:15:52.560Z,101726.78
2018-04-28T15:18:25.663Z,101723.50
2018-04-28T15:20:59.395Z,101727.23
2018-04-28T15:23:32.083Z,101725.30
2018-04-28T15:26:05.459Z,101730.24
2018-04-28T15:28:39.316Z,101732.66
2018-04-28T15:32:53.314Z,101727.77
2018-04-28T15:35:25.964Z,101725.13
2018-04-28T15:37:59.238Z,101727.45
2018-04-28T15:40:32.518Z,101723.33
2018-04-28T15:43:05.879Z,101726.64
2018-04-28T15:45:39.207Z,101725.56
2018-04-28T15:48:12.387Z,101730.08
2018-04-28T15:50:45.790Z,101734.28
2018-04-28T15:53:19.672Z,101738.98
2018-04-28T15:55:52.664Z,101740.27
2018-04-28T15:58:26.153Z,101738.29
2018-04-28T16:00:58.924Z,101743.47
2018-04-28T16:03:32.071Z,101749.66
2018-04-28T16:06:05.519Z,101740.38
2018-04-28T16:08:39.643Z,101734.63
2018-04-28T16:11:12.625Z,101733.20
2018-04-28T16:13:45.661Z,101734.80
2018-04-28T16:16:18.843Z,101729.48
2018-04-28T16:18:51.402Z,101719.00
2018-04-28T16:21:24.578Z,101721.34
2018-04-28T16:23:57.429Z,101710.69
2018-04-28T16:26:30.602Z,101707.94
2018-04-28T16:29:04.805Z,101706.38
2018-04-28T16:31:37.439Z,101699.62
2018-04-28T16:34:13.066Z,101703.11
2018-04-28T16:36:46.210Z,101700.70
2018-04-28T16:39:19.650Z,101708.24
2018-04-28T16:41:52.586Z,101704.39
2018-04-28T16:44:25.990Z,101699.69
2018-04-28T16:46:58.584Z,101714.22
2018-04-28T16:49:31.407Z,101713.47
2018-04-28T16:52:04.720Z,101712.65
2018-04-28T16:54:37.445Z,101714.90
2018-04-28T16:57:10.398Z,101715.01
2018-04-28T16:59:43.424Z,101709.94
2018-04-28T17:02:18.403Z,101707.69
2018-04-28T17:04:51.228Z,101719.97
2018-04-28T17:07:23.409Z,101718.49
2018-04-28T17:09:56.323Z,101719.03
2018-04-28T17:12:29.406Z,101721.81
2018-04-28T17:15:02.072Z,101719.48
2018-04-28T17:17:45.535Z,101715.66
2018-04-28T17:20:18.411Z,101712.16
2018-04-28T17:22:50.658Z,101711.22
2018-04-28T17:25:24.115Z,101711.06
2018-04-28T17:27:57.507Z,101713.12
2018-04-28T17:30:30.097Z,101705.92
2018-04-28T17:33:03.237Z,101712.80
2018-04-28T17:35:36.494Z,101707.97
2018-04-28T17:38:09.229Z,101708.36
2018-04-28T17:40:41.411Z,101706.01
2018-04-28T17:43:14.326Z,101702.48
2018-04-28T17:45:46.985Z,101706.36
2018-04-28T17:48:20.523Z,101706.34
2018-04-28T17:50:53.427Z,101696.56
2018-04-28T17:53:26.321Z,101693.80
2018-04-28T17:55:59.430Z,101695.08
2018-04-28T17:58:32.537Z,101703.95
2018-04-28T18:01:05.525Z,101709.62
2018-04-28T18:03:38.326Z,101712.84
2018-04-28T18:06:11.487Z,101723.42
2018-04-28T18:08:45.249Z,101737.39
2018-04-28T18:11:17.434Z,101736.33
2018-04-28T18:13:50.609Z,101735.66
2018-04-28T18:16:25.235Z,101737.08
2018-04-28T18:18:57.970Z,101743.48
2018-04-28T18:21:31.090Z,101737.86
2018-04-28T18:24:03.790Z,101738.00
2018-04-28T18:26:37.186Z,101744.62
2018-04-28T18:29:10.068Z,101746.96
2018-04-28T18:31:43.177Z,101756.57
2018-04-28T18:34:16.234Z,101753.59
2018-04-28T18:36:49.162Z,101755.09
2018-04-28T18:39:22.336Z,101749.98
2018-04-28T18:41:54.822Z,101747.16
2018-04-28T18:44:28.654Z,101740.33
2018-04-28T18:49:01.164Z,101741.45
2018-04-28T18:51:33.965Z,101736.50
2018-04-28T18:54:07.080Z,101735.86
2018-04-28T18:56:40.529Z,101744.45
2018-04-28T18:59:13.877Z,101743.77
2018-04-28T19:01:46.342Z,101742.53
2018-04-28T19:04:19.443Z,101738.78
2018-04-28T19:06:52.332Z,101742.12
2018-04-28T19:09:25.474Z,101751.03
2018-04-28T19:11:58.276Z,101754.16
2018-04-28T19:14:31.640Z,101750.95
2018-04-28T19:17:05.600Z,101748.22
2018-04-28T19:19:39.606Z,101744.03
2018-04-28T19:22:12.909Z,101747.61
2018-04-28T19:24:45.555Z,101747.64
2018-04-28T19:27:18.501Z,101751.56
2018-04-28T19:29:51.549Z,101755.16
2018-04-28T19:32:24.431Z,101754.44
2018-04-28T19:34:57.255Z,101757.94
2018-04-28T19:37:29.334Z,101758.72
2018-04-28T19:40:01.887Z,101747.59
2018-04-28T19:42:34.436Z,101740.28
2018-04-28T19:45:07.491Z,101734.89
2018-04-28T19:48:49.147Z,101725.53
2018-04-28T19:51:21.570Z,101717.58
2018-04-28T19:53:54.473Z,101716.42
2018-04-28T19:56:27.593Z,101719.75
2018-04-28T19:59:00.510Z,101715.42
2018-04-28T20:01:33.564Z,101707.29
2018-04-28T20:04:06.562Z,101700.86
2018-04-28T20:06:40.739Z,101696.94
2018-04-28T20:09:56.607Z,101687.17
2018-04-28T20:12:28.731Z,101685.89
2018-04-28T20:15:00.974Z,101687.02
2018-04-28T20:17:33.434Z,101691.41
2018-04-28T20:20:06.356Z,101689.62
2018-04-28T20:22:49.864Z,101682.81
2018-04-28T20:25:25.997Z,101678.65
2018-04-28T20:27:58.355Z,101684.02
2018-04-28T20:30:31.503Z,101679.11
2018-04-28T20:33:05.150Z,101674.41
2018-04-28T20:35:37.714Z,101684.25
2018-04-28T20:38:10.984Z,101679.11
2018-04-28T20:40:44.559Z,101677.41
2018-04-28T20:43:17.437Z,101678.64
2018-04-28T20:45:50.124Z,101680.73
2018-04-28T20:48:23.287Z,101675.11
2018-04-28T20:50:56.349Z,101679.05
2018-04-28T20:53:29.489Z,101675.23
2018-04-28T20:56:02.632Z,101672.20
2018-04-28T20:58:36.479Z,101672.45
2018-04-28T21:01:09.822Z,101674.78
2018-04-28T21:03:42.464Z,101666.74
2018-04-28T21:06:16.057Z,101662.81
2018-04-28T21:08:49.056Z,101664.48
2018-04-28T21:11:21.906Z,101660.02
2018-04-28T21:13:55.097Z,101652.72
2018-04-28T21:16:29.828Z,101651.02
2018-04-28T21:19:03.812Z,101647.61
2018-04-28T21:21:37.493Z,101650.07
2018-04-28T21:24:10.784Z,101638.63
2018-04-28T21:26:43.473Z,101646.52
2018-04-28T21:29:16.454Z,101642.48
2018-04-28T21:31:49.615Z,101649.06
2018-04-28T21:34:22.459Z,101647.42
2018-04-28T21:36:55.206Z,101650.87
2018-04-28T21:39:28.011Z,101658.70
2018-04-28T21:42:01.625Z,101659.31
2018-04-28T21:44:35.253Z,101644.61
2018-04-28T21:47:07.491Z,101650.83
2018-04-28T21:49:40.653Z,101647.03
2018-04-28T21:52:13.516Z,101642.91
2018-04-28T21:54:46.813Z,101644.28
2018-04-28T21:57:20.366Z,101642.53
2018-04-28T21:59:54.851Z,101651.59
2018-04-28T22:02:29.377Z,101652.82
2018-04-28T22:05:01.646Z,101659.16
2018-04-28T22:07:34.314Z,101638.83
2018-04-28T22:10:07.506Z,101631.99
2018-04-28T22:12:40.556Z,101615.45
2018-04-28T22:15:13.712Z,101608.90
2018-04-28T22:17:47.674Z,101603.06
2018-04-28T22:20:20.628Z,101592.94
2018-04-28T22:22:53.819Z,101585.30
2018-04-28T22:25:27.461Z,101579.45
2018-04-28T22:28:00.465Z,101568.17
2018-04-28T22:30:34.104Z,101559.89
2018-04-28T22:33:07.238Z,101553.31
2018-04-28T22:35:39.959Z,101561.88
2018-04-28T22:38:15.532Z,101564.69
2018-04-28T22:40:48.474Z,101563.21
2018-04-28T22:43:21.482Z,101556.94
2018-04-28T22:45:55.012Z,101556.28
2018-04-28T22:48:28.125Z,101556.36
2018-04-28T22:51:01.478Z,101546.63
2018-04-28T22:53:34.589Z,101535.93
2018-04-28T22:56:08.379Z,101537.19
2018-04-28T22:58:41.594Z,101535.13
2018-04-28T23:01:14.777Z,101532.14
2018-04-28T23:03:47.776Z,101552.18
2018-04-28T23:06:21.780Z,101554.91
2018-04-28T23:09:03.429Z,101546.58
2018-04-28T23:13:09.738Z,101522.94
2018-04-28T23:15:43.018Z,101517.17
2018-04-28T23:18:16.382Z,101514.66
2018-04-28T23:20:49.477Z,101523.23
2018-04-28T23:23:22.681Z,101523.44
2018-04-28T23:25:55.736Z,101506.65
2018-04-28T23:28:29.692Z,101504.87
2018-04-28T23:31:02.387Z,101506.78
2018-04-28T23:33:34.513Z,101498.34
2018-04-28T23:36:07.710Z,101508.69
2018-04-28T23:38:40.637Z,101511.66
2018-04-28T23:41:13.499Z,101518.69
2018-04-28T23:43:46.476Z,101521.11
2018-04-28T23:46:20.541Z,101507.34
2018-04-28T23:48:53.496Z,101508.38
2018-04-28T23:51:26.608Z,101510.69
2018-04-28T23:53:59.299Z,101506.34
2018-04-28T23:56:32.786Z,101508.51
2018-04-28T23:59:05.535Z,101519.52
